Time;durP1;ratioP1;P1;durP2;ratioP2;P2;SDS_P1;SDS_P2;PMS_P1;PMS_P2;Temp;Humidity;BMP_temperature;BMP_pressure;BME280_temperature;BME280_humidity;BME280_pressure;Samples;Min_cycle;Max_cycle;Signal;HPM_P1;HPM_P2
2021/04/16 00:01:15;;;;;;;28.60;21.05;;;;;;;7.42;97.18;99882.86;1706326;84;21193;-81
2021/04/16 00:04:23;;;;;;;24.95;19.40;;;;;;;7.39;97.11;99881.01;1702611;82;21711;-81
2021/04/16 00:07:29;;;;;;;25.50;20.02;;;;;;;7.37;97.20;99887.95;1721854;83;21306;-80
2021/04/16 00:10:42;;;;;;;23.85;19.15;;;;;;;7.36;97.23;99886.77;1706302;84;21731;-80
2021/04/16 00:13:51;;;;;;;22.02;18.17;;;;;;;7.34;97.21;99880.14;1715164;83;21179;-81
2021/04/16 00:16:55;;;;;;;22.95;18.07;;;;;;;7.32;97.20;99888.96;1705204;83;21220;-79
2021/04/16 00:19:54;;;;;;;24.57;18.02;;;;;;;7.27;97.07;99885.89;1714680;82;21196;-80
2021/04/16 00:23:00;;;;;;;18.48;16.48;;;;;;;7.25;97.17;99885.22;1705582;84;21789;-81
2021/04/16 00:26:05;;;;;;;18.35;16.07;;;;;;;7.22;97.12;99881.45;1716067;83;21290;-80
2021/04/16 00:29:11;;;;;;;21.52;17.00;;;;;;;7.19;97.11;99884.49;1705285;84;21295;-80
2021/04/16 00:32:17;;;;;;;22.70;15.05;;;;;;;7.15;97.04;99888.08;1715901;83;21345;-81
2021/04/16 00:35:24;;;;;;;19.45;16.67;;;;;;;7.10;96.95;99882.25;1704716;84;21769;-81
2021/04/16 00:38:32;;;;;;;19.32;16.32;;;;;;;7.03;96.87;99884.45;1714677;83;21358;-80
2021/04/16 00:41:37;;;;;;;18.70;15.85;;;;;;;6.99;96.94;99877.12;1704712;82;21187;-80
2021/04/16 00:44:42;;;;;;;23.73;17.92;;;;;;;6.93;97.00;99883.22;1716147;83;21312;-79
2021/04/16 00:47:47;;;;;;;18.42;14.93;;;;;;;6.91;97.12;99883.88;1706295;84;21311;-81
2021/04/16 00:50:57;;;;;;;17.82;15.95;;;;;;;6.90;97.31;99883.53;1714705;82;21168;-80
2021/04/16 00:54:03;;;;;;;21.23;16.42;;;;;;;6.88;97.33;99885.06;1704704;83;21754;-80
2021/04/16 00:57:10;;;;;;;20.25;16.35;;;;;;;6.87;97.46;99879.80;1704012;84;21201;-80
2021/04/16 01:00:16;;;;;;;17.65;14.90;;;;;;;6.87;97.53;99883.38;1721743;83;21314;-81
2021/04/16 01:03:24;;;;;;;25.52;16.95;;;;;;;6.86;97.50;99883.52;1706176;84;21750;-80
2021/04/16 01:06:29;;;;;;;17.87;14.70;;;;;;;6.82;97.52;99881.65;1716210;83;21144;-81
2021/04/16 01:09:36;;;;;;;20.15;15.63;;;;;;;6.85;97.67;99889.97;1706237;84;21276;-80
2021/04/16 01:12:42;;;;;;;16.65;13.22;;;;;;;6.83;97.68;99883.34;1717470;82;21864;-81
2021/04/16 01:15:54;;;;;;;20.20;14.45;;;;;;;6.83;97.64;99886.06;1713948;84;21298;-80
2021/04/16 01:18:58;;;;;;;18.73;13.28;;;;;;;6.80;97.60;99885.53;1712747;84;21207;-80
2021/04/16 01:22:15;;;;;;;22.30;14.10;;;;;;;6.78;97.58;99893.86;1712621;84;21749;-80
2021/04/16 01:25:21;;;;;;;19.80;13.65;;;;;;;6.78;97.64;99885.70;1714163;83;21306;-82
2021/04/16 01:28:26;;;;;;;18.67;13.72;;;;;;;6.79;97.65;99890.12;1714187;84;21298;-81
2021/04/16 01:31:34;;;;;;;18.35;14.20;;;;;;;6.81;97.67;99893.52;1714236;84;21165;-81
2021/04/16 01:34:40;;;;;;;23.83;15.40;;;;;;;6.82;97.52;99891.16;1714207;84;21346;-80
2021/04/16 01:37:47;;;;;;;19.25;13.72;;;;;;;6.82;97.39;99891.64;1712758;83;21192;-82
2021/04/16 01:40:54;;;;;;;17.98;14.00;;;;;;;6.85;97.44;99889.45;1714197;84;21315;-80
2021/04/16 01:44:10;;;;;;;19.57;15.18;;;;;;;6.85;97.39;99894.05;1712658;82;21765;-80
2021/04/16 01:47:17;;;;;;;21.75;14.50;;;;;;;6.83;97.32;99892.86;1714078;84;21194;-82
2021/04/16 01:50:23;;;;;;;22.07;16.30;;;;;;;6.82;97.41;99895.24;1691188;84;21310;-81
2021/04/16 01:53:29;;;;;;;22.70;18.40;;;;;;;6.82;97.49;99895.24;1714202;84;21306;-81
2021/04/16 01:56:35;;;;;;;25.55;18.48;;;;;;;6.79;97.58;99890.63;1714113;84;21286;-82
2021/04/16 01:59:43;;;;;;;24.50;17.00;;;;;;;6.79;97.77;99896.92;1712839;84;21844;-81
2021/04/16 02:02:50;;;;;;;24.02;16.23;;;;;;;6.79;97.85;99890.12;1714160;84;21749;-80
2021/04/16 02:05:56;;;;;;;28.73;18.82;;;;;;;6.80;97.98;99894.53;1691144;84;21188;-80
2021/04/16 02:09:04;;;;;;;26.27;19.07;;;;;;;6.80;98.11;99887.73;1714213;84;21211;-81
2021/04/16 02:12:11;;;;;;;26.75;20.80;;;;;;;6.81;98.25;99891.30;1714135;84;21313;-81
2021/04/16 02:15:17;;;;;;;30.62;20.97;;;;;;;6.80;98.42;99885.02;1714108;84;21203;-81
2021/04/16 02:18:23;;;;;;;25.55;20.00;;;;;;;6.82;98.58;99885.73;1719728;83;21289;-80
2021/04/16 02:21:29;;;;;;;29.25;20.68;;;;;;;6.83;98.72;99890.14;1725190;83;21302;-80
2021/04/16 02:24:37;;;;;;;24.80;17.48;;;;;;;6.84;98.86;99894.56;1725189;83;21773;-81
2021/04/16 02:27:41;;;;;;;21.33;15.38;;;;;;;6.91;99.06;99894.23;1725214;83;21367;-81
2021/04/16 02:30:47;;;;;;;30.17;19.07;;;;;;;6.96;99.08;99895.11;1725224;83;21235;-81
2021/04/16 02:33:53;;;;;;;24.15;17.62;;;;;;;7.00;98.98;99898.36;1725234;83;21337;-81
2021/04/16 02:37:00;;;;;;;27.17;18.42;;;;;;;7.02;98.94;99899.07;1725262;83;21278;-80
2021/04/16 02:40:07;;;;;;;25.88;17.52;;;;;;;7.05;98.94;99901.44;1725250;83;21315;-80
2021/04/16 02:43:11;;;;;;;26.33;20.17;;;;;;;7.06;98.90;99905.89;1724431;83;21302;-80
2021/04/16 02:46:17;;;;;;;25.82;20.12;;;;;;;7.05;98.82;99904.16;1725048;83;21287;-80
2021/04/16 02:49:23;;;;;;;22.10;16.00;;;;;;;7.04;98.80;99907.91;1725387;83;21171;-81
2021/04/16 02:52:28;;;;;;;18.17;14.28;;;;;;;7.05;98.87;99906.88;1724946;83;21305;-80
2021/04/16 02:55:35;;;;;;;21.12;16.55;;;;;;;7.05;98.87;99908.23;1725375;83;21266;-81
2021/04/16 02:58:41;;;;;;;23.12;16.37;;;;;;;7.04;98.79;99911.98;1725271;83;21911;-80
2021/04/16 03:01:46;;;;;;;26.30;17.25;;;;;;;7.03;98.83;99915.72;1725038;83;21242;-81
2021/04/16 03:04:51;;;;;;;29.82;16.37;;;;;;;7.02;98.79;99909.44;1725258;83;21779;-80
2021/04/16 03:07:58;;;;;;;29.32;18.17;;;;;;;7.00;98.83;99906.01;1725216;83;21298;-80
2021/04/16 03:11:03;;;;;;;20.65;14.93;;;;;;;6.98;98.83;99905.84;1725254;83;21195;-82
2021/04/16 03:14:08;;;;;;;32.53;17.80;;;;;;;6.98;99.08;99910.77;1725222;83;21163;-81
2021/04/16 03:17:14;;;;;;;21.48;16.05;;;;;;;7.00;99.30;99910.59;1725139;83;21167;-81
2021/04/16 03:20:21;;;;;;;20.97;15.43;;;;;;;7.01;99.47;99914.53;1702876;83;21318;-80
2021/04/16 03:23:26;;;;;;;26.02;16.87;;;;;;;7.03;99.61;99920.65;1697868;84;21885;-79
2021/04/16 03:26:34;;;;;;;23.70;15.00;;;;;;;7.06;99.80;99926.28;1708544;84;21298;-79
2021/04/16 03:29:40;;;;;;;22.93;15.30;;;;;;;7.06;99.93;99917.61;1698643;84;21164;-80
2021/04/16 03:32:45;;;;;;;19.65;13.60;;;;;;;7.06;99.98;99934.44;1708243;84;21315;-80
2021/04/16 03:35:50;;;;;;;17.07;13.22;;;;;;;7.07;100.00;99936.14;1698737;84;21897;-79
2021/04/16 03:38:56;;;;;;;24.87;14.63;;;;;;;7.07;100.00;99938.34;1708573;84;21334;-80
2021/04/16 03:42:03;;;;;;;20.27;13.35;;;;;;;7.08;100.00;99943.28;1698596;84;21370;-80
2021/04/16 03:45:08;;;;;;;21.48;14.78;;;;;;;7.07;100.00;99937.50;1708623;84;21822;-80
2021/04/16 03:48:14;;;;;;;16.55;11.78;;;;;;;7.09;100.00;99939.53;1698699;84;21714;-79
2021/04/16 03:51:20;;;;;;;19.60;13.45;;;;;;;7.13;100.00;99939.05;1708568;84;21805;-79
2021/04/16 03:54:26;;;;;;;18.00;13.88;;;;;;;7.13;100.00;99940.92;1698791;84;21267;-78
2021/04/16 03:57:32;;;;;;;17.90;13.08;;;;;;;7.12;100.00;99943.30;1708590;84;21302;-79
2021/04/16 04:00:39;;;;;;;19.48;13.22;;;;;;;7.12;100.00;99946.88;1698889;84;22242;-79
2021/04/16 04:03:45;;;;;;;21.75;14.75;;;;;;;7.13;100.00;99946.36;1708518;84;21319;-78
2021/04/16 04:06:50;;;;;;;15.32;11.35;;;;;;;7.15;100.00;99949.75;1698770;84;21707;-79
2021/04/16 04:09:56;;;;;;;20.52;13.28;;;;;;;7.16;100.00;99948.77;1708649;84;21168;-79
2021/04/16 04:13:02;;;;;;;17.60;12.98;;;;;;;7.13;100.00;99943.64;1698699;84;21299;-79
2021/04/16 04:16:08;;;;;;;20.12;14.80;;;;;;;7.16;100.00;99941.97;1708602;84;21157;-80
2021/04/16 04:19:13;;;;;;;22.90;14.80;;;;;;;7.14;100.00;99948.91;1699731;83;21169;-80
2021/04/16 04:22:19;;;;;;;22.07;14.75;;;;;;;7.17;100.00;99949.95;1719414;83;21203;-79
2021/04/16 04:25:30;;;;;;;17.48;12.63;;;;;;;7.16;100.00;99950.97;1706258;84;21302;-79
2021/04/16 04:28:35;;;;;;;19.37;13.30;;;;;;;7.14;100.00;99946.70;1716415;83;21734;-78
2021/04/16 04:31:49;;;;;;;23.67;15.55;;;;;;;7.13;100.00;99947.72;1706292;84;21783;-79
2021/04/16 04:34:54;;;;;;;25.12;16.02;;;;;;;7.09;100.00;99953.13;1716198;83;21315;-81
2021/04/16 04:38:00;;;;;;;23.32;14.98;;;;;;;7.05;100.00;99959.40;1706290;84;21322;-79
2021/04/16 04:41:04;;;;;;;21.17;14.38;;;;;;;7.03;99.97;99963.31;1716269;83;21306;-79
2021/04/16 04:44:10;;;;;;;26.80;16.32;;;;;;;7.02;99.93;99967.05;1706294;84;21197;-81
2021/04/16 04:47:14;;;;;;;20.08;12.98;;;;;;;7.01;99.96;99968.92;1716185;83;21211;-79
2021/04/16 04:50:22;;;;;;;18.65;11.90;;;;;;;7.08;100.00;99973.19;1716142;83;21783;-82
2021/04/16 04:53:28;;;;;;;15.60;10.95;;;;;;;7.11;100.00;99976.96;1705039;84;21236;-81
2021/04/16 04:56:34;;;;;;;19.42;13.15;;;;;;;7.13;99.85;99976.28;1727552;81;21159;-81
2021/04/16 04:59:40;;;;;;;15.60;12.03;;;;;;;7.13;99.58;99981.72;1731439;82;21183;-79
2021/04/16 05:02:45;;;;;;;18.70;13.78;;;;;;;7.14;99.41;99978.83;1713382;82;21330;-79
2021/04/16 05:05:51;;;;;;;17.40;13.32;;;;;;;7.18;99.25;99972.56;1707325;83;21616;-80
2021/04/16 05:08:57;;;;;;;21.75;12.80;;;;;;;7.26;99.25;99982.64;1724305;81;21290;-82
2021/04/16 05:12:02;;;;;;;14.80;11.57;;;;;;;7.35;99.17;99983.88;1718383;82;22155;-81
2021/04/16 05:15:08;;;;;;;14.53;11.33;;;;;;;7.41;98.81;99981.00;1698376;82;21832;-81
2021/04/16 05:18:14;;;;;;;14.40;10.50;;;;;;;7.41;98.31;99980.48;1711268;82;21291;-83
2021/04/16 05:21:20;;;;;;;12.55;9.58;;;;;;;7.40;97.99;99981.51;1710419;83;21151;-82
2021/04/16 05:24:31;;;;;;;17.95;11.73;;;;;;;7.41;97.89;99979.13;1704109;84;21732;-80
2021/04/16 05:27:33;;;;;;;17.82;13.08;;;;;;;7.39;97.73;99986.61;1711781;82;21338;-81
2021/04/16 05:30:38;;;;;;;20.12;13.85;;;;;;;7.38;97.69;99986.24;1702778;82;21302;-79
2021/04/16 05:33:43;;;;;;;19.92;12.73;;;;;;;7.43;97.79;99992.08;1704883;82;21266;-80
2021/04/16 05:36:50;;;;;;;20.43;12.80;;;;;;;7.45;97.67;99991.05;1722309;83;21184;-80
2021/04/16 05:39:57;;;;;;;18.25;11.83;;;;;;;7.42;97.52;99991.70;1710012;83;21222;-81
2021/04/16 05:43:03;;;;;;;18.30;12.68;;;;;;;7.39;97.33;99984.41;1717869;83;21232;-81
2021/04/16 05:46:08;;;;;;;16.67;12.03;;;;;;;7.40;97.26;99991.55;1715965;83;21868;-79
2021/04/16 05:49:14;;;;;;;16.95;12.55;;;;;;;7.43;97.27;99993.44;1705922;84;21267;-79
2021/04/16 05:52:19;;;;;;;18.62;14.28;;;;;;;7.46;97.11;99999.05;1711015;84;21287;-79
2021/04/16 05:55:24;;;;;;;18.05;14.90;;;;;;;7.48;97.03;99990.70;1709648;84;21282;-79
2021/04/16 05:58:29;;;;;;;17.62;12.85;;;;;;;7.48;96.89;100001.59;1708909;83;21301;-82
2021/04/16 06:01:35;;;;;;;16.42;12.13;;;;;;;7.55;96.96;100006.22;1707512;84;21694;-80
2021/04/16 06:04:40;;;;;;;16.20;12.20;;;;;;;7.60;96.71;100011.18;1707986;84;21648;-81
2021/04/16 06:07:47;;;;;;;13.98;11.22;;;;;;;7.61;96.35;100013.72;1706795;84;21262;-79
2021/04/16 06:10:52;;;;;;;15.32;11.00;;;;;;;7.64;96.11;100020.73;1705669;82;21385;-78
2021/04/16 06:14:00;;;;;;;16.67;12.07;;;;;;;7.65;95.82;100021.06;1710260;82;21965;-78
2021/04/16 06:17:06;;;;;;;15.03;12.23;;;;;;;7.64;95.43;100021.57;1710438;82;21235;-78
2021/04/16 06:20:13;;;;;;;16.95;12.05;;;;;;;7.64;95.16;100027.53;1709477;84;21828;-79
2021/04/16 06:23:19;;;;;;;15.85;10.05;;;;;;;7.65;94.98;100029.23;1701087;84;21834;-80
2021/04/16 06:26:24;;;;;;;12.33;10.32;;;;;;;7.69;94.90;100029.25;1698823;82;21279;-78
2021/04/16 06:29:30;;;;;;;12.82;10.43;;;;;;;7.71;94.58;100037.23;1694462;83;21275;-79
2021/04/16 06:32:35;;;;;;;13.75;10.05;;;;;;;7.72;94.20;100038.97;1692163;83;21877;-79
2021/04/16 06:35:41;;;;;;;11.68;9.40;;;;;;;7.71;93.94;100034.52;1704762;82;21285;-82
2021/04/16 06:38:49;;;;;;;14.95;9.48;;;;;;;7.73;93.88;100038.80;1694838;83;21316;-80
2021/04/16 06:41:56;;;;;;;11.33;9.30;;;;;;;7.77;93.89;100040.17;1704586;82;21287;-79
2021/04/16 06:45:05;;;;;;;12.60;9.18;;;;;;;7.82;93.60;100045.98;1717196;81;21684;-80
2021/04/16 06:48:13;;;;;;;10.75;8.63;;;;;;;7.93;93.78;100047.02;1719101;81;21268;-79
2021/04/16 06:51:19;;;;;;;9.65;7.85;;;;;;;8.09;93.65;100054.88;1699590;82;21271;-79
2021/04/16 06:54:30;;;;;;;11.38;8.28;;;;;;;8.21;92.86;100056.29;1694930;83;21853;-79
2021/04/16 06:58:03;;;;;;;8.97;7.30;;;;;;;8.25;91.93;100052.73;1701757;84;21309;-79
2021/04/16 07:01:38;;;;;;;9.43;7.95;;;;;;;8.34;91.50;100058.02;1718535;81;21251;-80
2021/04/16 07:04:57;;;;;;;10.15;8.23;;;;;;;8.40;90.95;100053.80;1686704;83;21276;-79
2021/04/16 07:08:03;;;;;;;9.80;8.43;;;;;;;8.41;90.15;100055.49;1711341;81;21181;-80
2021/04/16 07:11:11;;;;;;;11.65;7.95;;;;;;;8.43;89.73;100060.28;1703996;82;21184;-80
2021/04/16 07:14:25;;;;;;;10.20;7.78;;;;;;;8.47;89.57;100064.86;1700937;83;21291;-83
2021/04/16 07:17:37;;;;;;;8.45;7.12;;;;;;;8.50;89.40;100071.35;1707555;82;21185;-80
2021/04/16 07:20:43;;;;;;;8.60;6.90;;;;;;;8.57;89.57;100071.03;1688172;83;21388;-81
2021/04/16 07:24:04;;;;;;;9.03;6.47;;;;;;;8.57;88.73;100066.43;1692868;83;21736;-80
2021/04/16 07:27:26;;;;;;;9.25;7.05;;;;;;;8.53;87.99;100071.03;1697514;83;21342;-81
2021/04/16 07:30:54;;;;;;;10.28;6.35;;;;;;;8.50;87.75;100070.84;1708718;82;21309;-81
2021/04/16 07:34:00;;;;;;;7.90;6.40;;;;;;;8.52;87.58;100070.69;1707000;84;21813;-83
2021/04/16 07:37:28;;;;;;;8.20;6.08;;;;;;;8.57;87.68;100073.25;1659499;82;21653;-82
2021/04/16 07:40:38;;;;;;;7.42;5.67;;;;;;;8.69;87.91;100076.47;1675107;82;21400;-83
2021/04/16 07:43:56;;;;;;;9.10;6.75;;;;;;;8.88;87.93;100073.41;1707198;82;21319;-82
2021/04/16 07:47:08;;;;;;;9.18;6.87;;;;;;;9.02;86.25;100069.13;1707275;82;21814;-83
2021/04/16 07:50:24;;;;;;;7.72;6.05;;;;;;;9.13;85.53;100073.41;1706661;82;21204;-82
2021/04/16 07:53:56;;;;;;;7.12;6.17;;;;;;;9.33;84.78;100070.63;1707162;82;21314;-83
2021/04/16 07:57:19;;;;;;;6.70;5.85;;;;;;;9.54;83.83;100070.05;1703511;82;21200;-83
2021/04/16 08:00:47;;;;;;;8.83;6.33;;;;;;;9.86;83.53;100070.95;1708197;82;21236;-83
2021/04/16 08:03:57;;;;;;;10.32;6.20;;;;;;;10.08;80.44;100072.91;1706340;84;21223;-84
2021/04/16 08:07:25;;;;;;;9.00;6.28;;;;;;;10.19;78.54;100065.66;1719159;82;21920;-81
2021/04/16 08:10:31;;;;;;;9.70;5.35;;;;;;;10.31;78.20;100066.67;1679172;82;21606;-81
2021/04/16 08:13:39;;;;;;;10.53;6.90;;;;;;;10.48;77.14;100063.62;1719932;81;21280;-81
2021/04/16 08:16:49;;;;;;;7.05;6.00;;;;;;;10.63;76.51;100071.03;1700964;82;21806;-81
2021/04/16 08:19:55;;;;;;;8.38;6.20;;;;;;;10.59;75.95;100073.83;1686749;82;21156;-80
2021/04/16 08:23:03;;;;;;;11.22;5.62;;;;;;;10.57;77.07;100073.14;1701527;83;21160;-81
2021/04/16 08:26:10;;;;;;;6.50;5.47;;;;;;;10.78;77.04;100071.97;1724916;81;21173;-81
2021/04/16 08:29:41;;;;;;;7.67;6.17;;;;;;;10.83;74.26;100072.27;1698348;81;21742;-80
2021/04/16 08:33:01;;;;;;;7.60;5.58;;;;;;;10.78;74.91;100067.86;1676142;82;21494;-80
2021/04/16 08:36:15;;;;;;;6.95;5.08;;;;;;;10.89;75.74;100072.04;1698041;82;21239;-80
2021/04/16 08:39:41;;;;;;;10.08;5.50;;;;;;;11.06;74.80;100074.13;1683904;82;21216;-82
2021/04/16 08:42:48;;;;;;;9.05;5.60;;;;;;;11.32;75.65;100074.53;1683976;84;21295;-82
2021/04/16 08:45:56;;;;;;;5.78;5.00;;;;;;;11.64;74.95;100080.70;1705214;84;21271;-80
2021/04/16 08:49:08;;;;;;;13.93;5.70;;;;;;;11.93;74.80;100077.13;1704004;82;21924;-81
2021/04/16 08:52:17;;;;;;;5.60;4.85;;;;;;;12.12;72.80;100081.16;1683343;84;21338;-80
2021/04/16 08:55:32;;;;;;;5.28;4.75;;;;;;;12.09;70.07;100076.93;1672838;84;21687;-81
2021/04/16 08:58:43;;;;;;;7.53;4.90;;;;;;;11.95;69.72;100077.28;1697990;82;21797;-81
2021/04/16 09:02:00;;;;;;;5.87;4.72;;;;;;;11.84;69.75;100069.52;1701140;84;21259;-80
2021/04/16 09:05:26;;;;;;;5.75;4.65;;;;;;;11.84;70.06;100064.03;1724435;82;21145;-81
2021/04/16 09:08:49;;;;;;;5.25;4.55;;;;;;;11.97;68.96;100060.11;1698002;82;21290;-81
2021/04/16 09:11:59;;;;;;;7.33;5.05;;;;;;;12.08;67.82;100072.98;1732578;82;21256;-81
2021/04/16 09:15:09;;;;;;;7.70;5.33;;;;;;;12.08;67.64;100073.83;1707095;82;21164;-81
2021/04/16 09:18:34;;;;;;;5.33;4.47;;;;;;;12.05;68.56;100066.02;1709374;82;21215;-81
2021/04/16 09:21:41;;;;;;;9.10;5.00;;;;;;;12.17;67.43;100067.72;1711059;82;21267;-81
2021/04/16 09:25:04;;;;;;;11.30;5.40;;;;;;;12.24;66.51;100067.30;1708220;82;21804;-81
2021/04/16 09:28:34;;;;;;;5.83;5.12;;;;;;;12.29;67.45;100064.82;1712614;83;21199;-81
2021/04/16 09:31:56;;;;;;;9.90;4.85;;;;;;;12.47;67.32;100067.98;1708497;83;21143;-82
2021/04/16 09:35:02;;;;;;;5.40;4.05;;;;;;;12.68;68.06;100066.28;1716177;82;21281;-82
2021/04/16 09:38:33;;;;;;;5.67;4.15;;;;;;;12.90;67.41;100076.74;1713628;83;21937;-82
2021/04/16 09:41:39;;;;;;;5.70;5.10;;;;;;;13.03;63.89;100072.72;1699680;83;21642;-82
2021/04/16 09:44:53;;;;;;;5.10;4.45;;;;;;;13.07;64.49;100067.16;1707703;83;21736;-82
2021/04/16 09:48:01;;;;;;;9.30;4.80;;;;;;;13.16;63.76;100063.75;1711295;82;21804;-82
2021/04/16 09:51:12;;;;;;;5.62;4.60;;;;;;;13.11;61.92;100074.48;1709109;83;21655;-82
2021/04/16 09:54:29;;;;;;;5.53;4.42;;;;;;;13.04;62.70;100069.80;1718160;82;21204;-82
2021/04/16 09:57:48;;;;;;;5.20;4.47;;;;;;;13.00;62.22;100067.64;1711152;82;21282;-81
2021/04/16 10:01:05;;;;;;;7.00;4.53;;;;;;;12.92;63.75;100078.75;1715128;82;21849;-82
2021/04/16 10:04:16;;;;;;;5.85;4.12;;;;;;;12.94;63.49;100087.13;1714618;82;22934;-82
2021/04/16 10:07:22;;;;;;;5.85;5.00;;;;;;;12.96;62.70;100080.91;1710786;82;21805;-82
2021/04/16 10:10:44;;;;;;;5.53;4.72;;;;;;;12.90;63.92;100089.09;1713162;82;21848;-82
2021/04/16 10:13:50;;;;;;;4.97;3.85;;;;;;;12.91;63.17;100084.77;1712815;82;21777;-81
2021/04/16 10:17:10;;;;;;;4.90;4.42;;;;;;;12.93;63.22;100075.80;1708986;82;21736;-81
2021/04/16 10:20:28;;;;;;;4.40;3.92;;;;;;;12.89;61.50;100089.62;1711017;83;21267;-82
2021/04/16 10:23:50;;;;;;;5.45;4.35;;;;;;;12.76;61.94;100096.34;1705523;82;21359;-83
2021/04/16 10:38:06;;;;;;;6.50;5.28;;;;;;;12.38;63.83;100087.50;1706219;82;21176;-81
2021/04/16 11:33:18;;;;;;;4.67;2.70;;;;;;;12.83;66.72;100091.76;1701034;84;21485;-82
2021/04/16 12:39:54;;;;;;;3.95;2.30;;;;;;;8.58;75.03;100158.61;1704963;83;21605;-79
2021/04/16 12:43:05;;;;;;;4.33;1.62;;;;;;;8.27;77.29;100180.11;1718254;83;21175;-79
2021/04/16 12:46:11;;;;;;;7.33;1.77;;;;;;;8.12;79.07;100186.69;1700942;82;21167;-79
2021/04/16 12:49:16;;;;;;;2.80;1.60;;;;;;;8.03;80.94;100176.77;1704821;83;21258;-79
2021/04/16 12:52:24;;;;;;;4.12;2.02;;;;;;;8.02;82.14;100169.11;1722232;83;21295;-79
2021/04/16 12:55:30;;;;;;;7.60;2.95;;;;;;;8.22;83.68;100157.44;1719336;83;21170;-80
2021/04/16 12:58:38;;;;;;;4.47;2.00;;;;;;;8.49;83.86;100144.61;1695487;83;21346;-79
2021/04/16 13:01:43;;;;;;;9.20;2.67;;;;;;;8.76;82.69;100142.97;1699226;84;21255;-81
2021/04/16 13:04:48;;;;;;;5.42;1.82;;;;;;;9.10;83.15;100135.13;1720186;83;21279;-81
2021/04/16 13:07:53;;;;;;;3.70;1.65;;;;;;;9.38;81.37;100144.66;1681338;84;21358;-79
2021/04/16 13:10:58;;;;;;;2.75;1.57;;;;;;;9.51;78.64;100148.23;1725240;83;21229;-81
2021/04/16 13:14:05;;;;;;;5.80;1.75;;;;;;;9.60;77.16;100143.61;1726140;83;21331;-81
2021/04/16 13:17:10;;;;;;;2.80;1.70;;;;;;;9.67;76.88;100137.77;1712303;83;21327;-84
2021/04/16 13:20:19;;;;;;;3.87;2.00;;;;;;;9.75;76.46;100136.91;1686700;84;21758;-81
2021/04/16 13:23:24;;;;;;;3.70;1.45;;;;;;;9.78;74.59;100133.29;1659605;86;21262;-81
2021/04/16 13:26:32;;;;;;;5.17;1.80;;;;;;;9.81;74.30;100119.30;1703713;84;21298;-79
2021/04/16 13:29:41;;;;;;;2.98;1.67;;;;;;;9.87;74.40;100115.84;1691464;85;21321;-79
2021/04/16 13:32:53;;;;;;;6.78;1.82;;;;;;;10.01;74.90;100108.79;1660579;86;21361;-81
2021/04/16 13:36:01;;;;;;;4.28;1.77;;;;;;;10.18;75.33;100109.06;1704902;84;21311;-81
2021/04/16 13:39:06;;;;;;;3.17;1.60;;;;;;;10.35;73.97;100111.23;1649537;85;21305;-79
2021/04/16 13:42:11;;;;;;;3.25;1.75;;;;;;;10.47;73.41;100111.66;1692685;85;21179;-81
2021/04/16 13:45:18;;;;;;;5.15;1.80;;;;;;;10.56;73.00;100109.73;1693027;85;21286;-81
2021/04/16 13:48:23;;;;;;;5.35;2.00;;;;;;;10.63;71.74;100107.47;1692664;85;21325;-81
2021/04/16 13:51:31;;;;;;;4.37;2.27;;;;;;;10.73;71.83;100104.49;1692794;85;21204;-81
2021/04/16 13:54:36;;;;;;;6.25;2.15;;;;;;;10.85;71.64;100110.38;1692872;85;21327;-80
2021/04/16 13:57:42;;;;;;;3.30;1.75;;;;;;;10.91;71.04;100108.27;1692756;85;21187;-81
2021/04/16 14:00:50;;;;;;;1.70;1.50;;;;;;;10.97;70.59;100100.71;1692706;85;21839;-81
2021/04/16 14:04:00;;;;;;;3.22;1.95;;;;;;;11.02;69.53;100102.89;1692735;85;21314;-81
2021/04/16 14:07:06;;;;;;;3.22;2.00;;;;;;;11.04;69.51;100097.55;1671530;85;21310;-81
2021/04/16 14:10:12;;;;;;;4.92;2.15;;;;;;;11.07;69.03;100100.45;1692813;85;21318;-80
2021/04/16 14:13:21;;;;;;;4.28;2.92;;;;;;;11.00;68.51;100101.17;1692907;85;21892;-81
2021/04/16 14:16:39;;;;;;;4.08;1.92;;;;;;;10.92;68.96;100098.52;1650349;85;21831;-81
2021/04/16 14:20:03;;;;;;;2.00;1.67;;;;;;;10.85;68.89;100094.80;1661378;86;21291;-81
2021/04/16 14:23:09;;;;;;;3.47;1.95;;;;;;;10.86;69.39;100097.02;1705226;84;21209;-80
2021/04/16 14:26:15;;;;;;;3.12;2.33;;;;;;;10.81;70.09;100108.52;1671468;85;21179;-79
2021/04/16 14:29:21;;;;;;;2.87;1.72;;;;;;;10.67;69.38;100101.95;1661395;86;21988;-79
2021/04/16 14:32:29;;;;;;;5.97;2.37;;;;;;;10.58;69.84;100103.55;1687138;85;21726;-79
2021/04/16 14:35:38;;;;;;;2.50;1.98;;;;;;;10.51;70.50;100105.33;1661447;86;21817;-79
2021/04/16 14:38:43;;;;;;;3.87;2.37;;;;;;;10.42;70.64;100104.00;1705385;84;21322;-80
2021/04/16 14:41:50;;;;;;;5.40;3.00;;;;;;;10.36;71.02;100106.09;1691939;85;22399;-81
2021/04/16 14:44:56;;;;;;;3.77;2.52;;;;;;;10.35;71.58;100119.44;1661345;86;21180;-80
2021/04/16 14:48:02;;;;;;;3.00;2.10;;;;;;;10.36;71.40;100125.23;1704753;84;21758;-79
2021/04/16 14:51:11;;;;;;;5.78;2.33;;;;;;;10.30;70.59;100120.98;1669642;85;21362;-81
2021/04/16 14:54:36;;;;;;;3.77;2.33;;;;;;;10.24;70.79;100132.13;1693067;85;21706;-80
2021/04/16 14:57:44;;;;;;;3.42;2.58;;;;;;;10.13;71.12;100142.06;1676851;85;21176;-79
2021/04/16 15:00:49;;;;;;;7.55;2.27;;;;;;;10.04;71.76;100146.70;1657847;85;21739;-79
2021/04/16 15:03:54;;;;;;;5.53;2.22;;;;;;;9.90;72.87;100153.75;1687228;85;21306;-79
2021/04/16 15:07:06;;;;;;;7.65;2.55;;;;;;;9.75;74.56;100160.13;1661456;86;21282;-79
2021/04/16 15:10:14;;;;;;;4.45;2.50;;;;;;;9.59;73.76;100140.00;1705547;84;21164;-79
2021/04/16 15:13:32;;;;;;;7.58;2.40;;;;;;;9.11;75.92;100173.15;1692870;85;21183;-78
2021/04/16 15:16:40;;;;;;;3.85;3.08;;;;;;;8.50;79.03;100151.77;1677922;85;21318;-78
2021/04/16 15:19:52;;;;;;;3.02;2.37;;;;;;;8.01;81.56;100146.98;1687552;85;21323;-79
2021/04/16 15:22:56;;;;;;;4.03;2.70;;;;;;;7.72;82.49;100151.45;1660918;86;21334;-78
2021/04/16 15:26:04;;;;;;;5.37;3.30;;;;;;;7.58;83.24;100146.59;1705511;84;21233;-79
2021/04/16 15:29:18;;;;;;;7.42;2.70;;;;;;;7.56;84.14;100150.82;1692771;85;21338;-78
2021/04/16 15:32:29;;;;;;;2.95;2.40;;;;;;;7.55;84.89;100153.20;1659932;86;21319;-79
2021/04/16 15:46:44;;;;;;;4.80;2.40;;;;;;;7.46;86.37;100128.82;1687515;85;21175;-80
2021/04/16 15:49:46;;;;;;;2.20;2.00;;;;;;;7.35;86.40;100138.96;1677948;85;21173;-80
2021/04/16 15:52:52;;;;;;;4.22;2.60;;;;;;;7.27;86.47;100143.48;1660752;86;21242;-81
2021/04/16 15:55:58;;;;;;;4.95;2.62;;;;;;;7.22;86.94;100134.44;1705539;84;21282;-81
2021/04/16 15:59:04;;;;;;;2.77;1.92;;;;;;;7.17;87.38;100131.35;1692731;85;21195;-81
2021/04/16 16:02:17;;;;;;;2.12;1.92;;;;;;;7.14;87.54;100134.38;1677980;85;21980;-79
2021/04/16 16:05:23;;;;;;;4.90;2.55;;;;;;;7.08;87.44;100137.73;1661430;86;21294;-80
2021/04/16 16:08:29;;;;;;;3.58;2.55;;;;;;;7.06;87.60;100137.91;1705406;84;21356;-80
2021/04/16 16:11:41;;;;;;;3.17;2.62;;;;;;;7.10;87.97;100139.78;1692935;85;21282;-79
2021/04/16 16:14:58;;;;;;;2.98;2.62;;;;;;;7.16;88.31;100151.41;1661237;86;21326;-79
2021/04/16 16:18:05;;;;;;;4.22;3.12;;;;;;;7.20;88.48;100151.45;1705470;84;21856;-79
2021/04/16 16:21:13;;;;;;;3.55;2.60;;;;;;;7.20;88.52;100147.36;1692915;85;21282;-80
2021/04/16 16:24:19;;;;;;;5.87;3.20;;;;;;;7.22;88.33;100148.05;1661313;86;21224;-80
2021/04/16 16:27:30;;;;;;;4.58;3.02;;;;;;;7.22;88.01;100144.48;1705439;84;21310;-80
2021/04/16 16:30:36;;;;;;;;;;;;;;;7.17;87.94;100150.39;1695490;85;21287;-81
2021/04/16 16:33:42;;;;;;;8.00;4.45;;;;;;;7.09;88.15;100161.20;1684908;85;20203;-81
2021/04/16 16:36:47;;;;;;;7.50;5.40;;;;;;;6.97;88.76;100158.39;1670614;86;21711;-81
2021/04/16 16:39:55;;;;;;;7.30;5.75;;;;;;;6.87;89.47;100158.48;1679518;85;21315;-81
2021/04/16 16:43:09;;;;;;;8.75;5.75;;;;;;;6.79;90.20;100156.53;1644462;87;21350;-80
2021/04/16 16:46:20;;;;;;;10.75;6.33;;;;;;;6.73;90.80;100154.45;1681493;84;21869;-80
2021/04/16 16:49:27;;;;;;;10.72;6.20;;;;;;;6.65;91.60;100158.43;1685394;85;21253;-81
2021/04/16 16:52:33;;;;;;;9.98;6.60;;;;;;;6.58;92.34;100161.41;1685328;85;21742;-80
2021/04/16 16:55:39;;;;;;;9.98;5.72;;;;;;;6.52;93.00;100156.59;1670597;86;21169;-82
2021/04/16 16:58:46;;;;;;;8.75;5.65;;;;;;;6.48;93.70;100156.04;1679982;85;21872;-81